createdAt,value
2019-05-18T00:00:10.856Z,6.33
2019-05-18T00:02:40.266Z,8.03
2019-05-18T00:05:10.607Z,6.83
2019-05-18T00:07:40.012Z,8.37
2019-05-18T00:10:09.850Z,6.80
2019-05-18T00:12:39.320Z,5.23
2019-05-18T00:15:09.275Z,5.17
2019-05-18T00:17:38.703Z,6.77
2019-05-18T00:20:08.627Z,5.13
2019-05-18T00:22:38.044Z,6.97
2019-05-18T00:25:07.892Z,6.77
2019-05-18T00:27:37.342Z,6.10
2019-05-18T00:30:08.298Z,6.83
2019-05-18T00:32:37.753Z,5.63
2019-05-18T00:35:08.102Z,6.13
2019-05-18T00:37:37.521Z,6.83
2019-05-18T00:40:10.394Z,6.13
2019-05-18T00:42:39.804Z,5.37
2019-05-18T00:45:09.755Z,6.00
2019-05-18T00:47:41.874Z,6.43
2019-05-18T00:50:10.665Z,6.00
2019-05-18T00:52:40.072Z,5.70
2019-05-18T00:55:09.930Z,6.10
2019-05-18T00:57:39.321Z,5.93
2019-05-18T01:00:11.063Z,8.30
2019-05-18T01:02:40.459Z,6.80
2019-05-18T01:05:10.527Z,6.77
2019-05-18T01:07:39.938Z,6.57
2019-05-18T01:10:09.991Z,6.93
2019-05-18T01:12:39.397Z,8.73
2019-05-18T01:15:09.735Z,9.20
2019-05-18T01:17:39.132Z,7.67
2019-05-18T01:20:08.993Z,6.37
2019-05-18T01:22:38.464Z,7.43
2019-05-18T01:25:08.116Z,7.67
2019-05-18T01:27:37.516Z,8.00
2019-05-18T01:30:09.064Z,9.20
2019-05-18T01:32:38.453Z,6.50
2019-05-18T01:35:08.511Z,7.63
2019-05-18T01:37:38.008Z,8.27
2019-05-18T01:40:08.064Z,7.80
2019-05-18T01:42:37.644Z,7.80
2019-05-18T01:45:16.466Z,6.87
2019-05-18T01:47:39.408Z,8.23
2019-05-18T01:50:09.247Z,8.20
2019-05-18T01:52:38.696Z,6.03
2019-05-18T01:55:10.451Z,7.17
2019-05-18T01:57:39.923Z,6.67
2019-05-18T02:00:11.575Z,7.10
2019-05-18T02:02:40.995Z,6.03
2019-05-18T02:05:11.018Z,7.50
2019-05-18T02:07:40.488Z,8.03
2019-05-18T02:10:10.279Z,8.93
2019-05-18T02:12:39.679Z,9.80
2019-05-18T02:15:10.529Z,8.87
2019-05-18T02:17:39.933Z,7.67
2019-05-18T02:20:09.879Z,6.27
2019-05-18T02:22:39.273Z,7.87
2019-05-18T02:25:09.071Z,8.77
2019-05-18T02:27:38.479Z,7.53
2019-05-18T02:30:10.366Z,6.67
2019-05-18T02:32:39.805Z,7.70
2019-05-18T02:35:09.462Z,8.83
2019-05-18T02:37:38.865Z,7.37
2019-05-18T02:40:08.527Z,9.47
2019-05-18T02:42:37.991Z,7.07
2019-05-18T02:45:08.038Z,7.67
2019-05-18T02:47:37.430Z,9.23
2019-05-18T02:50:08.587Z,8.83
2019-05-18T02:52:37.984Z,7.20
2019-05-18T02:55:07.941Z,7.50
2019-05-18T02:57:37.408Z,7.73
2019-05-18T03:00:10.969Z,8.63
2019-05-18T03:02:40.426Z,8.63
2019-05-18T03:05:10.294Z,8.50
2019-05-18T03:07:39.704Z,8.63
2019-05-18T03:10:09.558Z,8.30
2019-05-18T03:12:39.022Z,8.10
2019-05-18T03:15:09.371Z,8.70
2019-05-18T03:17:38.893Z,9.33
2019-05-18T03:20:09.549Z,9.57
2019-05-18T03:22:39.024Z,11.03
2019-05-18T03:25:08.999Z,11.27
2019-05-18T03:27:38.400Z,9.47
2019-05-18T03:30:08.474Z,9.27
2019-05-18T03:32:37.862Z,10.63
2019-05-18T03:35:07.636Z,7.57
2019-05-18T03:37:37.033Z,9.03
2019-05-18T03:40:06.871Z,7.83
2019-05-18T03:42:36.362Z,8.47
2019-05-18T03:45:05.933Z,9.47
2019-05-18T03:47:35.322Z,7.27
2019-05-18T03:50:07.369Z,7.50
2019-05-18T03:52:36.771Z,7.47
2019-05-18T03:55:06.404Z,7.90
2019-05-18T03:57:35.818Z,7.33
2019-05-18T04:00:08.600Z,8.53
2019-05-18T04:02:38.802Z,7.97
2019-05-18T04:05:08.265Z,7.10
2019-05-18T04:07:37.791Z,9.47
2019-05-18T04:10:08.600Z,7.07
2019-05-18T04:12:38.013Z,12.30
2019-05-18T04:15:08.867Z,7.13
2019-05-18T04:17:38.370Z,7.67
2019-05-18T04:20:08.213Z,10.20
2019-05-18T04:22:37.631Z,7.83
2019-05-18T04:25:07.298Z,10.63
2019-05-18T04:27:36.704Z,9.73
2019-05-18T04:30:07.973Z,10.03
2019-05-18T04:32:37.387Z,10.20
2019-05-18T04:35:07.642Z,10.77
2019-05-18T04:37:37.043Z,8.37
2019-05-18T04:40:08.567Z,8.33
2019-05-18T04:42:37.971Z,9.43
2019-05-18T04:45:07.855Z,9.53
2019-05-18T04:47:37.269Z,9.93
2019-05-18T04:50:09.430Z,10.40
2019-05-18T04:52:38.845Z,11.23
2019-05-18T04:55:08.706Z,9.90
2019-05-18T04:57:38.103Z,7.50
2019-05-18T05:00:08.464Z,8.30
2019-05-18T05:02:37.852Z,10.60
2019-05-18T05:05:07.626Z,9.30
2019-05-18T05:07:37.016Z,10.10
2019-05-18T05:10:09.430Z,8.63
2019-05-18T05:12:38.824Z,8.23
2019-05-18T05:15:08.391Z,8.40
2019-05-18T05:17:37.813Z,8.97
2019-05-18T05:20:19.343Z,9.00
2019-05-18T05:22:38.794Z,10.17
2019-05-18T05:25:08.505Z,7.13
2019-05-18T05:27:37.918Z,6.87
2019-05-18T05:30:08.534Z,9.00
2019-05-18T05:32:37.953Z,8.50
2019-05-18T05:35:07.909Z,7.00
2019-05-18T05:37:37.420Z,7.23
2019-05-18T05:40:08.318Z,10.97
2019-05-18T05:42:37.749Z,8.87
2019-05-18T05:45:07.576Z,6.97
2019-05-18T05:47:36.991Z,7.57
2019-05-18T05:50:09.819Z,8.90
2019-05-18T05:52:39.313Z,7.67
2019-05-18T05:55:09.529Z,9.20
2019-05-18T05:57:38.995Z,9.07
2019-05-18T06:00:09.550Z,7.30
2019-05-18T06:02:38.944Z,8.97
2019-05-18T06:05:08.811Z,8.87
2019-05-18T06:07:38.202Z,7.57
2019-05-18T06:10:07.797Z,10.63
2019-05-18T06:12:37.205Z,8.97
2019-05-18T06:15:08.751Z,9.57
2019-05-18T06:17:38.167Z,7.30
2019-05-18T06:20:08.772Z,8.07
2019-05-18T06:22:38.184Z,8.40
2019-05-18T06:25:08.442Z,6.20
2019-05-18T06:27:38.056Z,7.70
2019-05-18T06:30:08.443Z,8.00
2019-05-18T06:32:38.259Z,8.40
2019-05-18T06:35:07.910Z,8.17
2019-05-18T06:37:37.319Z,7.67
2019-05-18T06:40:07.883Z,6.67
2019-05-18T06:42:37.317Z,7.77
2019-05-18T06:45:07.757Z,7.57
2019-05-18T06:47:37.202Z,7.93
2019-05-18T06:50:11.184Z,6.53
2019-05-18T06:52:39.370Z,8.80
2019-05-18T06:55:09.093Z,6.93
2019-05-18T06:57:39.152Z,7.23
2019-05-18T07:00:10.880Z,6.33
2019-05-18T07:02:40.300Z,6.47
2019-05-18T07:05:10.525Z,6.73
2019-05-18T07:07:39.943Z,6.93
2019-05-18T07:10:09.744Z,7.40
2019-05-18T07:12:39.100Z,9.87
2019-05-18T07:15:09.454Z,7.77
2019-05-18T07:17:38.876Z,7.63
2019-05-18T07:20:08.713Z,6.60
2019-05-18T07:22:38.385Z,7.37
2019-05-18T07:25:08.183Z,5.93
2019-05-18T07:27:37.674Z,6.93
2019-05-18T07:30:08.932Z,5.73
2019-05-18T07:32:38.353Z,6.17
2019-05-18T07:35:08.102Z,5.67
2019-05-18T07:37:37.519Z,7.13
2019-05-18T07:40:07.966Z,6.77
2019-05-18T07:42:37.454Z,5.50
2019-05-18T07:45:08.188Z,5.53
2019-05-18T07:47:37.604Z,7.03
2019-05-18T07:50:08.054Z,6.07
2019-05-18T07:52:37.481Z,6.00
2019-05-18T07:55:07.308Z,7.00
2019-05-18T07:57:36.764Z,6.23
2019-05-18T08:00:06.932Z,4.90
2019-05-18T08:02:36.376Z,5.53
2019-05-18T08:05:10.291Z,5.40
2019-05-18T08:07:39.638Z,8.87
2019-05-18T08:10:09.733Z,6.23
2019-05-18T08:12:39.200Z,5.53
2019-05-18T08:15:14.526Z,5.33
2019-05-18T08:17:43.938Z,5.30
2019-05-18T08:20:13.571Z,7.67
2019-05-18T08:22:42.968Z,6.83
2019-05-18T08:25:13.234Z,5.10
2019-05-18T08:27:42.721Z,5.47
2019-05-18T08:30:12.287Z,5.60
2019-05-18T08:32:41.687Z,7.10
2019-05-18T08:35:11.432Z,7.23
2019-05-18T08:37:40.815Z,8.43
2019-05-18T08:40:10.973Z,12.70
2019-05-18T08:42:40.371Z,6.67
2019-05-18T08:45:11.038Z,5.73
2019-05-18T08:47:40.427Z,10.53
2019-05-18T08:50:10.197Z,6.10
2019-05-18T08:52:39.581Z,5.47
2019-05-18T08:55:09.635Z,6.17
2019-05-18T08:57:40.091Z,7.13
2019-05-18T09:00:10.323Z,7.10
2019-05-18T09:02:39.791Z,7.87
2019-05-18T09:05:09.657Z,5.67
2019-05-18T09:07:39.109Z,7.47
2019-05-18T09:10:09.119Z,7.77
2019-05-18T09:12:38.549Z,7.43
2019-05-18T09:15:08.615Z,6.60
2019-05-18T09:17:38.020Z,6.73
2019-05-18T09:20:08.883Z,6.73
2019-05-18T09:22:38.397Z,7.63
2019-05-18T09:25:08.051Z,7.60
2019-05-18T09:27:37.516Z,5.77
2019-05-18T09:30:07.890Z,7.13
2019-05-18T09:32:37.770Z,7.47
2019-05-18T09:35:08.033Z,6.50
2019-05-18T09:37:37.429Z,7.07
2019-05-18T09:40:07.785Z,6.27
2019-05-18T09:42:37.333Z,5.80
2019-05-18T09:45:08.686Z,8.80
2019-05-18T09:47:38.108Z,7.90
2019-05-18T09:50:08.453Z,8.33
2019-05-18T09:52:46.151Z,6.63
2019-05-18T09:55:10.546Z,6.53
2019-05-18T09:57:39.950Z,7.03
2019-05-18T10:00:11.652Z,7.23
2019-05-18T10:02:42.637Z,5.50
2019-05-18T10:05:12.340Z,7.50
2019-05-18T10:07:41.732Z,6.20
2019-05-18T10:10:11.388Z,6.80
2019-05-18T10:12:40.824Z,8.83
2019-05-18T10:15:11.375Z,10.80
2019-05-18T10:17:40.710Z,7.03
2019-05-18T10:20:10.658Z,6.07
2019-05-18T10:22:53.333Z,6.87
2019-05-18T10:25:11.815Z,6.73
2019-05-18T10:27:41.242Z,6.83
2019-05-18T10:30:11.092Z,5.33
2019-05-18T10:32:40.500Z,5.53
2019-05-18T10:35:10.346Z,8.13
2019-05-18T10:37:39.754Z,5.50
2019-05-18T10:40:09.922Z,6.40
2019-05-18T10:42:39.302Z,6.05
2019-05-18T10:45:09.207Z,5.62
2019-05-18T10:47:38.598Z,7.30
2019-05-18T10:50:09.159Z,7.33
2019-05-18T10:52:38.547Z,5.78
2019-05-18T10:55:08.801Z,9.83
2019-05-18T10:57:38.215Z,6.00
2019-05-18T11:00:10.195Z,5.58
2019-05-18T11:02:39.722Z,5.78
2019-05-18T11:05:10.479Z,5.70
2019-05-18T11:07:39.894Z,5.00
2019-05-18T11:10:09.937Z,6.25
2019-05-18T11:12:39.578Z,4.85
2019-05-18T11:15:10.361Z,4.90
2019-05-18T11:17:39.878Z,6.83
2019-05-18T11:20:11.038Z,5.58
2019-05-18T11:22:40.517Z,7.33
2019-05-18T11:25:10.258Z,5.97
2019-05-18T11:27:39.679Z,4.83
2019-05-18T11:30:10.438Z,5.12
2019-05-18T11:32:39.978Z,5.50
2019-05-18T11:35:09.975Z,6.67
2019-05-18T11:37:39.359Z,6.33
2019-05-18T11:40:10.749Z,6.10
2019-05-18T11:42:40.212Z,4.60
2019-05-18T11:45:11.661Z,6.05
2019-05-18T11:47:41.105Z,5.75
2019-05-18T11:50:11.322Z,5.75
2019-05-18T11:52:40.873Z,8.15
2019-05-18T11:55:10.841Z,5.60
2019-05-18T11:57:40.299Z,5.97
2019-05-18T12:00:12.355Z,5.33
2019-05-18T12:02:41.750Z,4.80
2019-05-18T12:05:12.115Z,4.70
2019-05-18T12:07:42.211Z,4.12
2019-05-18T12:10:12.708Z,3.75
2019-05-18T12:12:42.618Z,5.03
2019-05-18T12:15:13.431Z,8.40
2019-05-18T12:17:42.873Z,5.50
2019-05-18T12:20:13.542Z,6.07
2019-05-18T12:22:43.025Z,5.70
2019-05-18T12:25:13.476Z,5.77
2019-05-18T12:27:43.057Z,5.20
2019-05-18T12:30:12.963Z,4.63
2019-05-18T12:32:42.392Z,5.97
2019-05-18T12:35:12.282Z,6.30
2019-05-18T12:37:41.701Z,5.53
2019-05-18T12:40:14.149Z,6.83
2019-05-18T12:42:43.949Z,6.07
2019-05-18T12:45:13.871Z,6.37
2019-05-18T12:47:43.304Z,6.90
2019-05-18T12:50:15.345Z,5.43
2019-05-18T12:52:44.927Z,7.80
2019-05-18T12:55:16.176Z,7.30
2019-05-18T12:57:45.671Z,6.77
2019-05-18T13:00:16.867Z,7.53
2019-05-18T13:02:46.268Z,6.23
2019-05-18T13:05:16.950Z,6.50
2019-05-18T13:07:46.325Z,8.67
2019-05-18T13:10:17.733Z,6.17
2019-05-18T13:12:47.265Z,8.20
2019-05-18T13:15:17.139Z,9.70
2019-05-18T13:17:46.553Z,7.63
2019-05-18T13:20:16.683Z,7.50
2019-05-18T13:22:46.105Z,6.73
2019-05-18T13:25:16.249Z,6.30
2019-05-18T13:27:45.717Z,7.00
2019-05-18T13:30:20.266Z,7.27
2019-05-18T13:32:50.455Z,8.00
2019-05-18T13:35:19.950Z,6.37
2019-05-18T13:37:49.383Z,7.07
2019-05-18T13:40:19.423Z,6.53
2019-05-18T13:42:48.906Z,5.20
2019-05-18T13:45:18.671Z,6.60
2019-05-18T13:47:48.102Z,5.53
2019-05-18T13:50:18.117Z,6.07
2019-05-18T13:52:47.552Z,5.90
2019-05-18T13:55:17.214Z,6.33
2019-05-18T13:57:46.628Z,6.50
2019-05-18T14:00:18.968Z,4.83
2019-05-18T14:02:49.309Z,5.43
2019-05-18T14:05:19.151Z,7.23
2019-05-18T14:07:48.586Z,5.37
2019-05-18T14:10:18.433Z,4.13
2019-05-18T14:12:47.877Z,3.73
2019-05-18T14:15:17.594Z,3.80
2019-05-18T14:17:47.004Z,6.10
2019-05-18T14:20:17.544Z,6.03
2019-05-18T14:22:46.947Z,4.70
2019-05-18T14:25:19.651Z,6.47
2019-05-18T14:27:47.809Z,5.17
2019-05-18T14:30:18.763Z,8.13
2019-05-18T14:32:48.168Z,6.10
2019-05-18T14:35:17.829Z,7.00
2019-05-18T14:37:47.221Z,7.73
2019-05-18T14:40:16.870Z,7.17
2019-05-18T14:42:46.268Z,7.63
2019-05-18T14:45:16.030Z,6.43
2019-05-18T14:47:45.430Z,5.37
2019-05-18T14:50:15.388Z,5.87
2019-05-18T14:52:44.810Z,6.53
2019-05-18T14:55:14.374Z,5.33
2019-05-18T14:57:43.940Z,6.03
2019-05-18T15:00:14.160Z,5.70
2019-05-18T15:02:43.554Z,6.53
2019-05-18T15:05:13.408Z,6.23
2019-05-18T15:07:42.821Z,7.70
2019-05-18T15:10:14.249Z,7.10
2019-05-18T15:12:43.658Z,6.23
2019-05-18T15:15:14.370Z,8.87
2019-05-18T15:17:43.774Z,6.07
2019-05-18T15:20:14.049Z,4.43
2019-05-18T15:22:43.446Z,6.77
2019-05-18T15:25:13.331Z,5.07
2019-05-18T15:27:42.818Z,5.53
2019-05-18T15:30:13.471Z,4.67
2019-05-18T15:32:42.856Z,5.27
2019-05-18T15:35:12.445Z,4.43
2019-05-18T15:37:43.746Z,4.60
2019-05-18T15:40:13.505Z,4.43
2019-05-18T15:42:42.899Z,4.13
2019-05-18T15:45:14.106Z,3.50
2019-05-18T15:47:43.475Z,6.07
2019-05-18T15:50:13.131Z,3.50
2019-05-18T15:52:42.540Z,5.70
2019-05-18T15:55:12.188Z,5.00
2019-05-18T15:57:41.585Z,4.63
2019-05-18T16:00:11.545Z,4.30
2019-05-18T16:02:40.943Z,4.17
2019-05-18T16:05:10.512Z,5.00
2019-05-18T16:07:39.915Z,4.27
2019-05-18T16:10:09.878Z,4.17
2019-05-18T16:12:39.442Z,4.67
2019-05-18T16:15:09.651Z,4.13
2019-05-18T16:17:40.241Z,3.80
2019-05-18T16:20:11.365Z,4.87
2019-05-18T16:22:44.111Z,3.30
2019-05-18T16:25:12.429Z,3.53
2019-05-18T16:27:41.813Z,3.77
2019-05-18T16:30:11.919Z,3.13
2019-05-18T16:32:41.316Z,5.43
2019-05-18T16:35:11.767Z,4.27
2019-05-18T16:37:41.912Z,4.50
2019-05-18T16:40:11.938Z,5.73
2019-05-18T16:42:41.349Z,7.93
2019-05-18T16:45:11.523Z,6.30
2019-05-18T16:47:40.977Z,6.13
2019-05-18T16:50:11.239Z,6.83
2019-05-18T16:52:40.636Z,6.00
2019-05-18T16:55:10.656Z,5.87
2019-05-18T16:57:40.117Z,4.50
2019-05-18T17:00:16.037Z,5.53
2019-05-18T17:02:44.217Z,6.07
2019-05-18T17:05:14.563Z,5.37
2019-05-18T17:07:43.978Z,6.03
2019-05-18T17:10:15.520Z,4.90
2019-05-18T17:12:44.932Z,5.83
2019-05-18T17:15:15.067Z,6.30
2019-05-18T17:17:44.479Z,6.43
2019-05-18T17:20:14.515Z,8.13
2019-05-18T17:22:44.023Z,7.47
2019-05-18T17:25:13.943Z,7.57
2019-05-18T17:27:43.366Z,6.30
2019-05-18T17:30:13.299Z,7.00
2019-05-18T17:32:42.712Z,7.90
2019-05-18T17:35:12.200Z,7.37
2019-05-18T17:37:41.624Z,7.73
2019-05-18T17:40:11.292Z,7.53
2019-05-18T17:42:40.719Z,6.83
2019-05-18T17:45:11.561Z,6.23
2019-05-18T17:47:40.974Z,5.57
2019-05-18T17:50:11.315Z,4.63
2019-05-18T17:52:40.804Z,4.87
2019-05-18T17:55:10.645Z,4.97
2019-05-18T17:57:40.136Z,4.67
2019-05-18T18:00:10.757Z,6.73
2019-05-18T18:02:40.579Z,11.93
2019-05-18T18:05:10.403Z,10.13
2019-05-18T18:07:39.810Z,12.47
2019-05-18T18:10:09.859Z,22.63
2019-05-18T18:12:39.278Z,7.63
2019-05-18T18:15:09.726Z,5.10
2019-05-18T18:17:39.212Z,6.13
2019-05-18T18:20:09.637Z,5.67
2019-05-18T18:22:39.063Z,5.50
2019-05-18T18:25:08.822Z,5.30
2019-05-18T18:27:38.244Z,7.00
2019-05-18T18:30:09.354Z,5.67
2019-05-18T18:32:38.788Z,4.60
2019-05-18T18:35:08.522Z,5.83
2019-05-18T18:37:37.942Z,4.70
2019-05-18T18:40:08.578Z,10.77
2019-05-18T18:42:38.119Z,5.37
2019-05-18T18:45:08.953Z,4.90
2019-05-18T18:47:38.377Z,5.57
2019-05-18T18:50:09.394Z,4.30
2019-05-18T18:52:39.078Z,4.07
2019-05-18T18:55:09.190Z,8.33
2019-05-18T18:57:41.836Z,7.13
2019-05-18T19:00:11.257Z,3.83
2019-05-18T19:02:40.696Z,4.53
2019-05-18T19:05:10.792Z,4.13
2019-05-18T19:07:40.198Z,4.63
2019-05-18T19:10:10.235Z,5.70
2019-05-18T19:12:39.690Z,4.37
2019-05-18T19:15:10.263Z,3.93
2019-05-18T19:17:39.806Z,3.80
2019-05-18T19:20:09.763Z,4.10
2019-05-18T19:22:39.253Z,4.53
2019-05-18T19:25:10.206Z,5.20
2019-05-18T19:27:39.682Z,5.17
2019-05-18T19:30:10.376Z,5.70
2019-05-18T19:32:39.919Z,8.23
2019-05-18T19:35:10.213Z,4.70
2019-05-18T19:37:39.574Z,6.07
2019-05-18T19:40:10.435Z,4.40
2019-05-18T19:42:39.887Z,4.90
2019-05-18T19:45:10.275Z,6.40
2019-05-18T19:47:39.670Z,4.00
2019-05-18T19:50:09.627Z,4.67
2019-05-18T19:52:39.026Z,5.00
2019-05-18T19:55:09.492Z,3.67
2019-05-18T19:57:38.966Z,4.23
2019-05-18T20:00:09.529Z,4.10
2019-05-18T20:02:38.991Z,4.50
2019-05-18T20:05:09.568Z,4.23
2019-05-18T20:07:39.111Z,4.40
2019-05-18T20:10:10.312Z,5.47
2019-05-18T20:12:39.797Z,4.10
2019-05-18T20:15:10.850Z,4.57
2019-05-18T20:17:40.241Z,4.57
2019-05-18T20:20:10.201Z,4.03
2019-05-18T20:22:43.076Z,3.37
2019-05-18T20:25:12.836Z,3.60
2019-05-18T20:27:42.337Z,4.90
2019-05-18T20:30:12.209Z,3.53
2019-05-18T20:32:41.611Z,4.97
2019-05-18T20:35:11.556Z,3.70
2019-05-18T20:37:41.390Z,3.70
2019-05-18T20:40:10.964Z,3.90
2019-05-18T20:42:40.363Z,4.00
2019-05-18T20:45:10.219Z,4.03
2019-05-18T20:47:39.698Z,4.90
2019-05-18T20:50:10.155Z,4.70
2019-05-18T20:52:39.633Z,4.97
2019-05-18T20:55:09.250Z,5.23
2019-05-18T20:57:38.659Z,5.50
2019-05-18T21:00:08.928Z,5.50
2019-05-18T21:02:38.344Z,5.60
2019-05-18T21:05:08.631Z,5.83
2019-05-18T21:07:38.034Z,5.57
2019-05-18T21:10:07.889Z,5.50
2019-05-18T21:12:37.628Z,5.47
2019-05-18T21:15:09.027Z,6.00
2019-05-18T21:17:38.413Z,6.73
2019-05-18T21:20:08.607Z,5.83
2019-05-18T21:22:38.097Z,5.20
2019-05-18T21:25:08.465Z,5.83
2019-05-18T21:27:38.127Z,5.87
2019-05-18T21:30:08.174Z,4.77
2019-05-18T21:32:37.588Z,5.70
2019-05-18T21:35:08.538Z,5.60
2019-05-18T21:37:37.935Z,6.37
2019-05-18T21:40:07.690Z,6.17
2019-05-18T21:42:37.168Z,6.27
2019-05-18T21:45:07.026Z,7.37
2019-05-18T21:47:36.431Z,5.17
2019-05-18T21:50:07.703Z,6.73
2019-05-18T21:52:37.161Z,5.53
2019-05-18T21:55:07.463Z,7.13
2019-05-18T21:57:36.857Z,5.80
2019-05-18T22:00:07.786Z,5.10
2019-05-18T22:02:41.290Z,6.40
2019-05-18T22:05:11.530Z,4.90
2019-05-18T22:07:40.930Z,4.80
2019-05-18T22:10:24.966Z,5.20
2019-05-18T22:12:41.671Z,5.50
2019-05-18T22:15:11.412Z,5.60
2019-05-18T22:17:58.324Z,6.17
2019-05-18T22:20:27.771Z,4.80
2019-05-18T22:22:57.224Z,4.97
2019-05-18T22:25:26.640Z,4.43
2019-05-18T22:27:56.147Z,4.90
2019-05-18T22:30:25.887Z,5.13
2019-05-18T22:32:55.347Z,4.20
2019-05-18T22:35:24.847Z,4.17
2019-05-18T22:37:54.327Z,7.10
2019-05-18T22:40:23.751Z,7.87
2019-05-18T22:42:53.623Z,6.57
2019-05-18T22:45:23.052Z,6.33
2019-05-18T22:47:52.452Z,6.17
2019-05-18T22:50:21.994Z,7.70
2019-05-18T22:52:51.455Z,8.70
2019-05-18T22:55:20.857Z,7.47
2019-05-18T22:57:50.272Z,6.90
2019-05-18T23:00:20.155Z,5.47
2019-05-18T23:02:49.719Z,5.47
2019-05-18T23:05:19.132Z,5.40
2019-05-18T23:07:48.587Z,4.87
2019-05-18T23:10:18.397Z,4.93
2019-05-18T23:12:47.820Z,4.97
2019-05-18T23:15:17.209Z,4.47
2019-05-18T23:17:46.616Z,5.53
2019-05-18T23:20:16.129Z,5.77
2019-05-18T23:22:45.569Z,5.50
2019-05-18T23:25:15.037Z,5.30
2019-05-18T23:27:44.476Z,5.77
2019-05-18T23:30:14.245Z,5.47
2019-05-18T23:32:43.669Z,5.00
2019-05-18T23:35:13.103Z,4.60
2019-05-18T23:37:42.577Z,5.73
2019-05-18T23:40:12.719Z,5.10
2019-05-18T23:42:42.155Z,5.90
2019-05-18T23:45:11.895Z,5.97
2019-05-18T23:47:41.320Z,5.83
2019-05-18T23:50:11.318Z,6.10
2019-05-18T23:52:40.738Z,5.90
2019-05-18T23:55:10.838Z,5.40
2019-05-18T23:57:40.325Z,5.23
